Time;durP1;ratioP1;P1;durP2;ratioP2;P2;SDS_P1;SDS_P2;PMS_P1;PMS_P2;Temp;Humidity;BMP_temperature;BMP_pressure;BME280_temperature;BME280_humidity;BME280_pressure;Samples;Min_cycle;Max_cycle;Signal;HPM_P1;HPM_P2
2023/08/18 00:00:14;;;;;;;7.50;6.38;;;19.20;99.90;;;;;;5051868;28;20077;-80
2023/08/18 00:02:40;;;;;;;7.47;6.75;;;19.20;99.90;;;;;;5052934;28;20025;-82
2023/08/18 00:05:07;;;;;;;7.00;5.90;;;19.10;99.90;;;;;;5051442;28;20083;-84
2023/08/18 00:07:32;;;;;;;8.27;6.22;;;19.10;99.90;;;;;;5051250;28;20060;-82
2023/08/18 00:09:58;;;;;;;8.23;7.18;;;19.10;99.90;;;;;;5054646;28;20536;-85
2023/08/18 00:12:24;;;;;;;7.55;6.43;;;19.20;99.90;;;;;;5056881;28;20500;-82
2023/08/18 00:14:51;;;;;;;7.10;6.50;;;19.10;99.90;;;;;;5051018;28;20108;-84
2023/08/18 00:17:17;;;;;;;7.53;6.82;;;19.10;99.90;;;;;;5056382;28;20067;-83
2023/08/18 00:19:43;;;;;;;7.93;5.93;;;19.00;99.90;;;;;;5054664;28;20481;-83
2023/08/18 00:22:09;;;;;;;7.55;6.95;;;19.10;99.90;;;;;;5056653;28;20025;-83
2023/08/18 00:24:35;;;;;;;9.15;6.68;;;19.00;99.90;;;;;;5069878;28;20047;-83
2023/08/18 00:27:01;;;;;;;5.93;5.43;;;19.00;99.90;;;;;;5057127;28;20025;-83
2023/08/18 00:29:26;;;;;;;6.50;5.95;;;19.10;99.90;;;;;;5052572;28;20025;-83
2023/08/18 00:31:52;;;;;;;6.50;5.90;;;19.00;99.90;;;;;;5053613;28;20040;-83
2023/08/18 00:34:17;;;;;;;6.07;5.47;;;19.10;99.90;;;;;;5053081;28;20024;-83
2023/08/18 00:36:43;;;;;;;8.68;6.20;;;19.10;99.90;;;;;;5052907;28;20017;-83
2023/08/18 00:39:08;;;;;;;7.32;6.63;;;19.10;99.90;;;;;;5054232;28;20027;-83
2023/08/18 00:41:34;;;;;;;7.45;6.35;;;19.10;99.90;;;;;;5050630;28;20021;-83
2023/08/18 00:43:59;;;;;;;6.22;5.47;;;19.10;99.90;;;;;;5054004;28;20032;-83
2023/08/18 00:46:26;;;;;;;5.50;4.88;;;19.10;99.90;;;;;;5054485;28;20044;-84
2023/08/18 00:48:51;;;;;;;5.57;5.07;;;19.10;99.90;;;;;;5054538;28;20028;-83
2023/08/18 00:51:17;;;;;;;6.53;5.78;;;19.10;99.90;;;;;;5051744;28;20013;-83
2023/08/18 00:53:44;;;;;;;5.88;5.38;;;19.10;99.90;;;;;;5051385;28;20091;-84
2023/08/18 00:56:10;;;;;;;6.10;5.60;;;19.10;99.90;;;;;;5050178;28;20051;-84
2023/08/18 00:58:36;;;;;;;8.02;6.65;;;19.10;99.90;;;;;;5050709;28;20538;-84
2023/08/18 01:01:02;;;;;;;8.13;7.38;;;19.10;99.90;;;;;;5050770;28;20409;-83
2023/08/18 01:03:30;;;;;;;7.07;6.38;;;19.10;99.90;;;;;;5050975;28;20100;-84
2023/08/18 01:05:56;;;;;;;6.30;5.68;;;19.00;99.90;;;;;;5050188;28;20071;-84
2023/08/18 01:08:22;;;;;;;7.95;7.13;;;19.00;99.90;;;;;;5065663;28;20028;-84
2023/08/18 01:10:56;;;;;;;4.80;4.22;;;19.00;99.90;;;;;;5049176;28;20032;-84
2023/08/18 01:13:35;;;;;;;6.60;5.97;;;18.90;99.90;;;;;;5077168;28;20028;-84
2023/08/18 01:16:05;;;;;;;6.18;5.55;;;19.00;99.90;;;;;;5050232;28;20048;-83
2023/08/18 01:18:33;;;;;;;5.45;4.47;;;19.00;99.90;;;;;;5049849;28;20021;-84
2023/08/18 01:21:02;;;;;;;5.50;5.00;;;19.00;99.90;;;;;;5070339;28;20024;-84
2023/08/18 01:23:39;;;;;;;5.90;5.40;;;19.00;99.90;;;;;;5069559;28;20476;-84
2023/08/18 01:26:04;;;;;;;6.32;5.80;;;19.00;99.90;;;;;;5069529;28;20025;-84
2023/08/18 01:28:31;;;;;;;6.07;5.53;;;19.00;99.90;;;;;;5066546;28;20031;-84
2023/08/18 01:30:57;;;;;;;8.45;5.90;;;19.00;99.90;;;;;;5059649;28;20071;-83
2023/08/18 01:33:34;;;;;;;6.97;6.30;;;19.00;99.90;;;;;;5052787;28;20103;-84
2023/08/18 01:36:05;;;;;;;7.03;6.43;;;19.00;99.90;;;;;;5070025;28;20017;-84
2023/08/18 01:38:32;;;;;;;7.43;6.07;;;19.00;99.90;;;;;;5064368;28;20060;-83
2023/08/18 01:40:59;;;;;;;7.97;7.30;;;18.90;99.90;;;;;;5071226;28;20377;-84
2023/08/18 01:43:26;;;;;;;6.88;6.25;;;19.00;99.90;;;;;;5064771;28;20099;-83
2023/08/18 01:45:51;;;;;;;7.65;6.30;;;18.90;99.90;;;;;;5062886;28;20024;-83
2023/08/18 01:48:17;;;;;;;6.80;6.20;;;18.90;99.90;;;;;;5063124;28;20021;-83
2023/08/18 01:50:43;;;;;;;7.45;6.43;;;18.90;99.90;;;;;;5050433;28;20063;-83
2023/08/18 01:53:08;;;;;;;6.80;6.20;;;18.90;99.90;;;;;;5053960;28;20405;-83
2023/08/18 01:55:34;;;;;;;6.35;5.85;;;18.90;99.90;;;;;;5054618;28;20041;-83
2023/08/18 01:57:59;;;;;;;7.70;7.00;;;18.90;99.90;;;;;;5060801;28;20024;-83
2023/08/18 02:00:25;;;;;;;8.50;7.70;;;18.90;99.90;;;;;;5055771;28;20370;-83
2023/08/18 02:02:50;;;;;;;7.38;6.68;;;18.80;99.90;;;;;;5060639;28;20033;-83
2023/08/18 02:05:16;;;;;;;7.60;6.68;;;18.80;99.90;;;;;;5065574;28;20024;-82
2023/08/18 02:07:42;;;;;;;7.40;5.70;;;18.80;99.90;;;;;;5062546;28;20358;-83
2023/08/18 02:10:08;;;;;;;6.82;6.22;;;18.80;99.90;;;;;;5065395;28;20028;-82
2023/08/18 02:12:33;;;;;;;6.28;5.68;;;18.80;99.90;;;;;;5060713;28;20656;-83
2023/08/18 02:14:59;;;;;;;7.13;6.53;;;18.80;99.90;;;;;;5066195;28;20021;-83
2023/08/18 02:17:29;;;;;;;7.03;5.68;;;18.80;99.90;;;;;;5048755;28;20104;-82
2023/08/18 02:19:58;;;;;;;8.07;7.28;;;18.90;99.90;;;;;;5058776;28;20012;-83
2023/08/18 02:22:25;;;;;;;6.78;6.13;;;18.80;99.90;;;;;;5058832;28;20048;-82
2023/08/18 02:24:51;;;;;;;6.78;6.07;;;18.80;99.90;;;;;;5058601;28;20025;-83
2023/08/18 02:27:17;;;;;;;6.78;6.13;;;18.70;99.90;;;;;;5061612;28;20020;-82
2023/08/18 02:29:42;;;;;;;7.32;6.63;;;18.80;99.90;;;;;;5063749;28;20035;-82
2023/08/18 02:32:08;;;;;;;6.85;6.18;;;18.80;99.90;;;;;;5055934;28;20028;-82
2023/08/18 02:34:34;;;;;;;8.63;7.85;;;18.70;99.90;;;;;;5064572;28;20021;-81
2023/08/18 02:36:59;;;;;;;7.70;6.90;;;18.60;99.90;;;;;;5057154;28;20052;-82
2023/08/18 02:39:25;;;;;;;6.47;5.80;;;18.60;99.90;;;;;;5057174;28;20024;-83
2023/08/18 02:41:51;;;;;;;6.45;5.85;;;18.60;99.90;;;;;;5061103;28;20032;-82
2023/08/18 02:44:17;;;;;;;8.00;6.22;;;18.60;99.90;;;;;;5064714;28;20024;-82
2023/08/18 02:46:43;;;;;;;7.70;5.93;;;18.60;99.90;;;;;;5060303;28;20540;-82
2023/08/18 02:49:09;;;;;;;6.82;6.20;;;18.70;99.90;;;;;;5064875;28;20095;-83
2023/08/18 02:51:34;;;;;;;8.73;7.90;;;18.60;99.90;;;;;;5048033;28;20502;-82
2023/08/18 02:54:00;;;;;;;6.55;5.88;;;18.60;99.90;;;;;;5048450;28;20029;-83
2023/08/18 02:56:26;;;;;;;8.23;6.80;;;18.60;99.90;;;;;;5048558;28;20025;-83
2023/08/18 02:58:52;;;;;;;9.60;7.22;;;18.60;99.90;;;;;;5049025;28;20079;-83
2023/08/18 03:01:17;;;;;;;9.73;6.70;;;18.60;99.90;;;;;;5066974;28;20485;-82
2023/08/18 03:03:43;;;;;;;8.15;6.32;;;18.60;99.90;;;;;;5068672;28;20032;-83
2023/08/18 03:06:09;;;;;;;7.50;6.68;;;18.60;99.90;;;;;;5059676;28;20072;-82
2023/08/18 03:08:36;;;;;;;7.82;7.03;;;18.60;99.90;;;;;;5060415;28;20636;-82
2023/08/18 03:11:02;;;;;;;8.15;7.35;;;18.60;99.90;;;;;;5054513;28;20024;-83
2023/08/18 03:13:28;;;;;;;9.52;7.28;;;18.70;99.90;;;;;;5065496;28;20037;-83
2023/08/18 03:15:54;;;;;;;7.97;7.18;;;18.60;99.90;;;;;;5052562;28;20036;-83
2023/08/18 03:18:20;;;;;;;7.78;7.07;;;18.60;99.90;;;;;;5052231;28;20378;-83
2023/08/18 03:20:48;;;;;;;8.55;7.75;;;18.60;99.90;;;;;;5052661;28;20485;-83
2023/08/18 03:23:16;;;;;;;8.68;7.82;;;18.70;99.90;;;;;;5065108;28;20370;-83
2023/08/18 03:25:43;;;;;;;9.77;8.88;;;18.60;99.90;;;;;;5065598;28;20044;-83
2023/08/18 03:28:10;;;;;;;11.40;9.70;;;18.60;99.90;;;;;;5064105;28;20572;-84
2023/08/18 03:30:39;;;;;;;10.95;9.45;;;18.60;99.90;;;;;;5051928;28;20390;-84
2023/08/18 03:33:05;;;;;;;9.18;8.27;;;18.60;99.90;;;;;;5066028;28;20058;-83
2023/08/18 03:35:32;;;;;;;9.45;8.50;;;18.60;99.90;;;;;;5063871;28;20382;-82
2023/08/18 03:37:59;;;;;;;10.80;9.77;;;18.60;99.90;;;;;;5052286;28;20017;-84
2023/08/18 03:40:25;;;;;;;10.02;9.13;;;18.60;99.90;;;;;;5051998;28;20067;-83
2023/08/18 03:42:51;;;;;;;9.20;8.32;;;18.60;99.90;;;;;;5052992;28;20032;-84
2023/08/18 03:45:16;;;;;;;10.10;9.02;;;18.60;99.90;;;;;;5052166;28;20029;-82
2023/08/18 03:47:42;;;;;;;9.40;8.40;;;18.60;99.90;;;;;;5052609;28;20086;-83
2023/08/18 03:50:08;;;;;;;10.05;9.00;;;18.60;99.90;;;;;;5052319;28;20474;-83
2023/08/18 03:52:34;;;;;;;11.05;10.02;;;18.60;99.90;;;;;;5064281;28;20048;-84
2023/08/18 03:54:59;;;;;;;12.55;11.35;;;18.60;99.90;;;;;;5059703;28;20427;-83
2023/08/18 03:57:25;;;;;;;12.82;11.63;;;18.60;99.90;;;;;;5071302;28;20040;-84
2023/08/18 03:59:53;;;;;;;14.20;12.85;;;18.50;99.90;;;;;;5064673;28;20029;-83
2023/08/18 04:02:18;;;;;;;12.45;11.35;;;18.50;99.90;;;;;;5064878;28;20376;-83
2023/08/18 04:04:44;;;;;;;14.48;13.07;;;18.50;99.90;;;;;;5054862;28;20481;-84
2023/08/18 04:07:09;;;;;;;14.10;12.63;;;18.50;99.90;;;;;;5067569;28;20537;-83
2023/08/18 04:09:35;;;;;;;13.25;12.05;;;18.50;99.90;;;;;;5051628;28;20029;-84
2023/08/18 04:12:00;;;;;;;15.43;14.13;;;18.50;99.90;;;;;;5051456;28;20029;-83
2023/08/18 04:14:26;;;;;;;17.58;13.73;;;18.50;99.90;;;;;;5057675;28;20138;-84
2023/08/18 04:16:52;;;;;;;18.65;14.90;;;18.40;99.90;;;;;;5057475;28;20027;-84
2023/08/18 04:19:17;;;;;;;16.30;14.77;;;18.40;99.90;;;;;;5057268;28;20019;-83
2023/08/18 04:21:43;;;;;;;14.68;13.23;;;18.40;99.90;;;;;;5069418;28;20033;-83
2023/08/18 04:24:08;;;;;;;14.10;12.80;;;18.40;99.90;;;;;;5063264;28;20043;-83
2023/08/18 04:26:36;;;;;;;15.10;13.60;;;18.40;99.90;;;;;;5063484;28;20494;-83
2023/08/18 04:29:02;;;;;;;17.42;14.43;;;18.40;99.90;;;;;;5067680;28;20072;-83
2023/08/18 04:31:28;;;;;;;17.20;15.45;;;18.40;99.90;;;;;;5052091;28;20032;-84
2023/08/18 04:33:54;;;;;;;17.65;15.88;;;18.40;99.90;;;;;;5064384;28;20029;-83
2023/08/18 04:36:20;;;;;;;17.13;15.40;;;18.40;99.90;;;;;;5068261;28;20054;-83
2023/08/18 04:38:45;;;;;;;18.38;16.45;;;18.40;99.90;;;;;;5062594;28;20025;-83
2023/08/18 04:41:11;;;;;;;19.45;17.08;;;18.30;99.90;;;;;;5064019;28;20025;-84
2023/08/18 04:43:37;;;;;;;20.52;18.50;;;18.30;99.90;;;;;;5069725;28;20020;-83
2023/08/18 04:46:03;;;;;;;24.65;18.20;;;18.30;99.90;;;;;;5062453;28;20024;-83
2023/08/18 04:48:28;;;;;;;18.30;16.48;;;18.30;99.90;;;;;;5068787;28;20040;-83
2023/08/18 04:50:54;;;;;;;18.15;16.25;;;18.30;99.90;;;;;;5054499;28;20071;-82
2023/08/18 04:53:20;;;;;;;19.40;17.58;;;18.30;99.90;;;;;;5050415;28;20116;-83
2023/08/18 04:55:45;;;;;;;18.67;16.75;;;18.30;99.90;;;;;;5063113;28;20035;-82
2023/08/18 04:58:13;;;;;;;20.83;18.80;;;18.30;99.90;;;;;;5070380;28;20012;-82
2023/08/18 05:00:43;;;;;;;20.98;18.83;;;18.30;99.90;;;;;;5055344;28;20496;-83
2023/08/18 05:03:09;;;;;;;22.38;19.42;;;18.30;99.90;;;;;;5069420;28;20389;-83
2023/08/18 05:05:39;;;;;;;22.05;17.88;;;18.30;99.90;;;;;;5056102;28;20075;-83
2023/08/18 05:08:05;;;;;;;20.75;17.17;;;18.30;99.90;;;;;;5049038;28;20060;-83
2023/08/18 05:10:30;;;;;;;20.00;16.20;;;18.30;99.90;;;;;;5053269;28;20469;-83
2023/08/18 05:12:56;;;;;;;18.50;16.60;;;18.30;99.90;;;;;;5051905;28;20072;-84
2023/08/18 05:15:22;;;;;;;22.63;20.33;;;18.40;99.90;;;;;;5050667;28;20105;-82
2023/08/18 05:17:51;;;;;;;21.08;18.98;;;18.40;99.90;;;;;;5051030;28;20104;-84
2023/08/18 05:20:16;;;;;;;20.02;17.90;;;18.40;99.90;;;;;;5052636;28;20024;-82
2023/08/18 05:22:42;;;;;;;23.38;19.75;;;18.40;99.90;;;;;;5050741;28;20425;-84
2023/08/18 05:25:08;;;;;;;22.60;19.88;;;18.30;99.90;;;;;;5053393;28;20445;-84
2023/08/18 05:27:34;;;;;;;23.08;19.75;;;18.40;99.90;;;;;;5051558;28;20476;-82
2023/08/18 05:30:00;;;;;;;22.75;20.38;;;18.30;99.90;;;;;;5051873;28;20019;-84
2023/08/18 05:32:26;;;;;;;21.63;18.95;;;18.30;99.90;;;;;;5049616;28;20028;-83
2023/08/18 05:34:55;;;;;;;20.30;18.23;;;18.40;99.90;;;;;;5052343;28;20023;-84
2023/08/18 05:37:21;;;;;;;22.80;20.58;;;18.40;99.90;;;;;;5050463;28;20379;-84
2023/08/18 05:39:47;;;;;;;24.48;19.33;;;18.40;99.90;;;;;;5052130;28;20071;-84
2023/08/18 05:42:13;;;;;;;20.90;18.35;;;18.50;99.90;;;;;;5051635;28;20025;-84
2023/08/18 05:44:38;;;;;;;23.10;19.65;;;18.50;99.90;;;;;;5052815;28;20040;-84
2023/08/18 05:47:04;;;;;;;23.67;19.45;;;18.60;99.90;;;;;;5051929;28;20088;-83
2023/08/18 05:49:30;;;;;;;21.83;19.45;;;18.60;99.90;;;;;;5052515;28;20054;-83
2023/08/18 05:51:56;;;;;;;26.27;20.88;;;18.60;99.90;;;;;;5049985;28;20041;-83
2023/08/18 05:54:21;;;;;;;27.42;20.83;;;18.60;99.90;;;;;;5049362;28;20060;-83
2023/08/18 05:56:47;;;;;;;23.33;19.48;;;18.60;99.90;;;;;;5049900;28;20033;-84
2023/08/18 05:59:12;;;;;;;20.45;18.27;;;18.60;99.90;;;;;;5050198;28;20477;-84
2023/08/18 06:01:38;;;;;;;19.70;17.50;;;18.70;99.90;;;;;;5050022;28;20868;-83
2023/08/18 06:04:04;;;;;;;24.30;21.15;;;18.70;99.90;;;;;;5050859;28;20024;-84
2023/08/18 06:06:30;;;;;;;23.02;20.63;;;18.80;99.90;;;;;;5050522;28;20029;-82
2023/08/18 06:08:55;;;;;;;22.58;20.17;;;18.80;99.90;;;;;;5050072;28;20017;-84
2023/08/18 06:11:22;;;;;;;23.73;17.98;;;18.80;99.90;;;;;;5049532;28;20078;-84
2023/08/18 06:13:47;;;;;;;22.20;18.73;;;18.80;99.90;;;;;;5050881;28;20033;-84
2023/08/18 06:16:13;;;;;;;22.85;17.75;;;18.90;99.90;;;;;;5048619;28;20425;-83
2023/08/18 06:18:38;;;;;;;23.90;20.83;;;18.90;99.90;;;;;;5050347;28;20537;-83
2023/08/18 06:21:04;;;;;;;20.52;17.92;;;18.90;99.90;;;;;;5050225;28;20024;-84
2023/08/18 06:23:29;;;;;;;24.67;18.73;;;19.00;99.90;;;;;;5050818;28;20086;-84
2023/08/18 06:25:58;;;;;;;23.60;18.98;;;19.00;99.90;;;;;;5050143;28;20029;-83
2023/08/18 06:28:25;;;;;;;19.67;17.75;;;19.10;99.90;;;;;;5049114;28;20025;-84
2023/08/18 06:30:51;;;;;;;22.67;20.08;;;19.10;99.90;;;;;;5051852;28;20025;-83
2023/08/18 06:33:16;;;;;;;22.33;19.98;;;19.10;99.90;;;;;;5048676;28;20034;-84
2023/08/18 06:35:42;;;;;;;23.38;18.98;;;19.10;99.90;;;;;;5049675;28;20162;-84
2023/08/18 06:38:08;;;;;;;23.77;19.83;;;19.20;99.90;;;;;;5049289;28;20032;-83
2023/08/18 06:40:33;;;;;;;24.35;19.08;;;19.20;99.90;;;;;;5049289;28;20533;-84
2023/08/18 06:42:59;;;;;;;24.70;17.58;;;19.20;99.90;;;;;;5049043;28;20024;-84
2023/08/18 06:45:24;;;;;;;19.02;17.23;;;19.20;99.90;;;;;;5048755;28;20074;-83
2023/08/18 06:47:50;;;;;;;32.95;22.27;;;19.20;99.90;;;;;;5049735;28;20028;-83
2023/08/18 06:50:15;;;;;;;28.05;23.48;;;19.30;99.90;;;;;;5057278;28;20377;-81
2023/08/18 06:52:41;;;;;;;26.17;22.10;;;19.40;99.90;;;;;;5053044;28;20053;-83
2023/08/18 06:55:11;;;;;;;29.85;23.85;;;19.40;99.90;;;;;;5048674;28;20094;-82
2023/08/18 06:57:36;;;;;;;27.55;23.45;;;19.50;99.90;;;;;;5048266;28;20036;-83
2023/08/18 07:00:06;;;;;;;28.50;21.42;;;19.60;99.90;;;;;;5048287;28;20021;-84
2023/08/18 07:02:31;;;;;;;24.10;19.75;;;19.70;99.90;;;;;;5050676;28;20562;-83
2023/08/18 07:04:57;;;;;;;23.08;20.58;;;19.80;99.90;;;;;;5068518;28;20028;-80
2023/08/18 07:07:22;;;;;;;23.38;19.95;;;19.80;99.90;;;;;;5054201;28;20474;-82
2023/08/18 07:09:49;;;;;;;21.90;18.80;;;19.80;99.90;;;;;;5064335;28;20036;-74
2023/08/18 07:12:16;;;;;;;22.48;19.40;;;19.90;99.90;;;;;;5063289;28;20931;-74
2023/08/18 07:14:42;;;;;;;22.23;17.58;;;19.90;99.90;;;;;;5067471;28;20017;-74
2023/08/18 07:17:07;;;;;;;15.57;13.70;;;20.00;99.90;;;;;;5067333;28;20082;-74
2023/08/18 07:19:33;;;;;;;20.90;17.80;;;20.10;99.90;;;;;;5060925;28;20025;-74
2023/08/18 07:21:59;;;;;;;19.83;17.35;;;20.10;99.90;;;;;;5063663;28;20017;-74
2023/08/18 07:24:25;;;;;;;22.20;18.20;;;20.20;99.90;;;;;;5067036;28;20009;-74
2023/08/18 07:26:51;;;;;;;20.27;18.15;;;20.30;99.90;;;;;;5065827;28;20431;-74
2023/08/18 07:29:16;;;;;;;25.80;21.98;;;20.40;99.90;;;;;;5065928;28;20012;-74
2023/08/18 07:31:42;;;;;;;27.25;20.10;;;20.50;99.90;;;;;;5064398;28;20021;-78
2023/08/18 07:34:08;;;;;;;23.67;20.98;;;20.40;99.90;;;;;;5081313;28;20036;-74
2023/08/18 07:36:35;;;;;;;22.25;19.95;;;20.40;99.90;;;;;;5064140;28;20029;-75
2023/08/18 07:39:03;;;;;;;23.90;21.15;;;20.40;99.90;;;;;;5065434;28;20028;-75
2023/08/18 07:41:29;;;;;;;22.98;20.65;;;20.50;99.90;;;;;;5060585;28;20024;-75
2023/08/18 07:43:54;;;;;;;23.48;19.88;;;20.50;99.90;;;;;;5063295;28;20051;-75
2023/08/18 07:46:20;;;;;;;21.38;19.13;;;20.60;99.90;;;;;;5059116;28;20025;-75
2023/08/18 07:48:45;;;;;;;24.63;22.05;;;20.60;99.90;;;;;;5063178;28;20055;-75
2023/08/18 07:51:11;;;;;;;25.90;23.13;;;20.70;99.90;;;;;;5059720;28;20513;-75
2023/08/18 07:53:37;;;;;;;25.05;21.23;;;20.80;99.90;;;;;;5047707;28;20037;-75
2023/08/18 07:56:03;;;;;;;23.25;20.83;;;20.90;99.90;;;;;;5047864;28;20038;-75
2023/08/18 07:58:29;;;;;;;24.92;22.27;;;20.90;99.90;;;;;;5047177;28;20048;-74
2023/08/18 08:00:56;;;;;;;26.35;23.73;;;20.90;99.90;;;;;;5052934;28;20056;-74
2023/08/18 08:03:22;;;;;;;26.38;23.45;;;20.90;99.90;;;;;;5053539;28;20027;-75
2023/08/18 08:05:48;;;;;;;27.08;24.17;;;21.00;99.90;;;;;;5057193;28;20025;-76
2023/08/18 08:08:14;;;;;;;25.35;22.27;;;21.10;99.90;;;;;;5054044;28;20036;-74
2023/08/18 08:10:39;;;;;;;25.48;21.48;;;21.20;99.90;;;;;;5059246;28;20110;-75
2023/08/18 08:13:05;;;;;;;21.67;19.48;;;21.20;99.90;;;;;;5055185;28;20029;-76
2023/08/18 08:15:30;;;;;;;26.73;22.13;;;21.10;99.90;;;;;;5057457;28;20031;-74
2023/08/18 08:17:56;;;;;;;23.48;20.40;;;21.10;99.90;;;;;;5056180;28;20497;-75
2023/08/18 08:20:22;;;;;;;23.25;20.80;;;21.10;99.90;;;;;;5057445;28;20029;-75
2023/08/18 08:22:50;;;;;;;25.08;22.35;;;21.20;99.90;;;;;;5054999;28;20436;-75
2023/08/18 08:25:16;;;;;;;25.92;23.30;;;21.30;99.90;;;;;;5047139;28;20040;-75
2023/08/18 08:27:42;;;;;;;27.25;24.52;;;21.50;99.90;;;;;;5054793;28;20471;-74
2023/08/18 08:30:11;;;;;;;25.23;22.52;;;21.60;99.90;;;;;;5058548;28;20032;-75
2023/08/18 08:32:36;;;;;;;23.92;21.25;;;21.50;99.90;;;;;;5055742;28;20111;-74
2023/08/18 08:35:02;;;;;;;24.55;21.92;;;21.40;99.90;;;;;;5058087;28;20466;-75
2023/08/18 08:37:28;;;;;;;22.70;20.27;;;21.50;99.90;;;;;;5052297;28;20021;-75
2023/08/18 08:39:54;;;;;;;25.15;22.45;;;21.50;99.90;;;;;;5069836;28;20043;-75
2023/08/18 08:42:20;;;;;;;23.85;21.42;;;21.60;99.90;;;;;;5069478;28;20486;-75
2023/08/18 08:44:45;;;;;;;18.45;16.63;;;21.60;99.90;;;;;;5057999;28;20058;-75
2023/08/18 08:47:12;;;;;;;21.63;18.05;;;21.60;99.90;;;;;;5070074;28;20036;-75
2023/08/18 08:49:41;;;;;;;21.35;19.25;;;21.70;99.90;;;;;;5066087;28;20055;-75
2023/08/18 08:52:08;;;;;;;21.17;18.88;;;21.80;99.90;;;;;;5060355;28;20076;-75
2023/08/18 08:55:02;;;;;;;18.42;16.67;;;21.80;99.90;;;;;;5058971;28;20025;-74
2023/08/18 08:57:28;;;;;;;20.42;18.48;;;21.90;99.90;;;;;;5048247;28;20044;-75
2023/08/18 08:59:54;;;;;;;16.98;15.05;;;21.90;99.90;;;;;;5054629;28;20033;-75
2023/08/18 09:02:23;;;;;;;19.92;17.83;;;21.90;99.90;;;;;;5059577;28;20024;-75
2023/08/18 09:04:48;;;;;;;17.15;15.55;;;22.00;99.90;;;;;;5057406;28;20025;-75
2023/08/18 09:07:14;;;;;;;17.02;15.43;;;22.00;99.90;;;;;;5059400;28;20448;-74
2023/08/18 09:09:43;;;;;;;18.00;16.20;;;22.00;99.90;;;;;;5052487;28;20078;-74
2023/08/18 09:12:10;;;;;;;19.25;17.45;;;22.00;99.90;;;;;;5059666;28;20120;-75
2023/08/18 09:14:39;;;;;;;18.17;16.27;;;22.10;99.90;;;;;;5057690;28;20017;-75
2023/08/18 09:17:05;;;;;;;19.08;17.17;;;22.10;99.90;;;;;;5059415;28;20020;-75
2023/08/18 09:19:31;;;;;;;17.50;15.85;;;22.10;99.90;;;;;;5058197;28;20027;-75
2023/08/18 09:21:58;;;;;;;18.25;16.33;;;22.10;99.90;;;;;;5055735;28;20108;-75
2023/08/18 09:24:24;;;;;;;18.05;16.23;;;22.10;99.90;;;;;;5059862;28;20066;-75
2023/08/18 09:26:50;;;;;;;16.67;15.07;;;22.20;99.90;;;;;;5059023;28;20021;-74
2023/08/18 09:29:16;;;;;;;16.67;15.27;;;22.20;99.90;;;;;;5058339;28;20078;-75
2023/08/18 09:31:46;;;;;;;14.55;13.05;;;22.30;99.90;;;;;;5051552;28;20433;-75
2023/08/18 09:34:22;;;;;;;17.48;15.77;;;22.40;99.90;;;;;;5077945;28;20526;-74
2023/08/18 09:36:56;;;;;;;16.23;14.63;;;22.50;99.90;;;;;;5064301;28;20708;-74
2023/08/18 09:39:25;;;;;;;13.13;11.73;;;22.70;99.90;;;;;;5050153;28;20032;-75
2023/08/18 09:41:51;;;;;;;15.77;14.27;;;22.70;99.90;;;;;;5060015;28;20036;-75
2023/08/18 09:44:18;;;;;;;16.30;14.77;;;22.80;99.90;;;;;;5061993;28;20478;-75
2023/08/18 09:46:53;;;;;;;13.85;12.65;;;22.90;99.90;;;;;;5061174;28;20501;-75
2023/08/18 09:49:20;;;;;;;15.18;13.60;;;23.00;99.90;;;;;;5061890;28;20060;-75
2023/08/18 09:51:50;;;;;;;16.45;14.98;;;23.00;99.90;;;;;;5054363;28;20044;-74
2023/08/18 09:54:18;;;;;;;14.95;13.57;;;23.10;99.90;;;;;;5040221;28;20029;-75
2023/08/18 09:56:46;;;;;;;14.75;13.35;;;23.20;99.70;;;;;;5046479;28;20091;-75
2023/08/18 09:59:31;;;;;;;13.35;12.05;;;23.20;99.60;;;;;;5048082;28;20013;-75
2023/08/18 10:01:57;;;;;;;15.38;13.88;;;23.30;99.60;;;;;;5049980;28;20017;-75
2023/08/18 10:04:25;;;;;;;13.90;12.57;;;23.40;99.40;;;;;;5050101;28;20021;-75
2023/08/18 10:06:55;;;;;;;14.00;12.70;;;23.60;99.40;;;;;;5057562;28;20020;-75
2023/08/18 10:09:27;;;;;;;15.73;14.30;;;23.60;99.20;;;;;;5057668;28;20009;-75
2023/08/18 10:11:54;;;;;;;15.80;14.40;;;23.60;99.20;;;;;;5064142;28;20027;-75
2023/08/18 10:14:22;;;;;;;14.73;13.43;;;23.60;99.10;;;;;;5053708;28;20036;-75
2023/08/18 10:16:49;;;;;;;14.60;13.23;;;23.60;99.10;;;;;;5063710;28;20023;-75
2023/08/18 10:19:15;;;;;;;13.90;12.80;;;23.50;99.10;;;;;;5058531;28;20013;-75
2023/08/18 10:21:40;;;;;;;14.65;13.20;;;23.50;99.10;;;;;;5063066;28;20498;-75
2023/08/18 10:24:06;;;;;;;13.85;12.43;;;23.40;99.10;;;;;;5073171;28;20389;-75
2023/08/18 10:26:34;;;;;;;13.93;12.73;;;23.40;99.20;;;;;;5066374;28;20086;-75
2023/08/18 10:29:16;;;;;;;14.48;13.05;;;23.40;99.20;;;;;;5051881;28;20021;-74
2023/08/18 10:31:48;;;;;;;14.18;12.82;;;23.40;99.20;;;;;;5050075;28;20575;-75
2023/08/18 10:34:22;;;;;;;15.77;14.35;;;23.40;99.30;;;;;;5051033;28;20024;-76
2023/08/18 10:36:56;;;;;;;14.15;12.88;;;23.30;99.30;;;;;;5050735;28;20100;-75
2023/08/18 10:39:26;;;;;;;12.18;10.98;;;23.30;99.40;;;;;;5051584;28;20478;-75
2023/08/18 10:42:09;;;;;;;14.20;13.00;;;23.40;99.50;;;;;;5050637;28;20021;-75
2023/08/18 10:44:35;;;;;;;12.93;11.63;;;23.50;99.50;;;;;;5051873;28;20025;-74
2023/08/18 10:47:05;;;;;;;13.07;11.77;;;23.50;99.40;;;;;;5050235;28;20063;-74
2023/08/18 10:49:30;;;;;;;11.52;10.48;;;23.60;99.60;;;;;;5051821;28;20028;-74
2023/08/18 10:51:56;;;;;;;12.70;11.60;;;23.60;99.60;;;;;;5047334;28;20398;-74
2023/08/18 10:54:23;;;;;;;13.27;12.10;;;23.70;99.80;;;;;;5048234;28;20021;-75
2023/08/18 10:56:49;;;;;;;12.57;11.48;;;23.80;99.80;;;;;;5073808;28;20025;-75
2023/08/18 10:59:14;;;;;;;13.85;12.63;;;23.80;99.70;;;;;;5067788;28;20542;-75
2023/08/18 11:01:42;;;;;;;12.73;11.73;;;23.80;99.60;;;;;;5062821;28;20036;-75
2023/08/18 11:04:09;;;;;;;12.23;11.23;;;23.80;99.60;;;;;;5064218;28;20017;-75
2023/08/18 11:06:34;;;;;;;12.45;11.32;;;23.90;99.60;;;;;;5067540;28;20099;-75
2023/08/18 11:09:02;;;;;;;13.60;12.30;;;23.90;99.60;;;;;;5052313;28;20475;-74
2023/08/18 11:11:28;;;;;;;12.68;11.57;;;24.00;99.40;;;;;;5048284;28;20099;-75
2023/08/18 11:13:54;;;;;;;12.68;11.57;;;24.00;99.40;;;;;;5048813;28;20055;-75
2023/08/18 11:16:23;;;;;;;14.48;13.27;;;24.00;99.50;;;;;;5046928;28;20056;-75
2023/08/18 11:18:48;;;;;;;13.32;12.13;;;24.00;99.30;;;;;;5049225;28;20013;-75
2023/08/18 11:21:14;;;;;;;14.30;13.00;;;23.90;99.40;;;;;;5048362;28;20036;-75
2023/08/18 11:23:40;;;;;;;13.48;12.27;;;23.90;99.40;;;;;;5049437;28;20082;-75
2023/08/18 11:26:05;;;;;;;14.52;13.23;;;24.00;99.40;;;;;;5048767;28;20096;-75
2023/08/18 11:28:32;;;;;;;13.05;11.93;;;24.00;99.40;;;;;;5048892;28;20048;-75
2023/08/18 11:30:57;;;;;;;14.13;12.85;;;24.00;99.40;;;;;;5048770;28;20021;-75
2023/08/18 11:33:25;;;;;;;14.50;13.25;;;24.10;99.60;;;;;;5048306;28;20033;-75
2023/08/18 11:35:51;;;;;;;16.90;15.30;;;24.10;99.60;;;;;;5051205;28;20017;-75
2023/08/18 11:38:17;;;;;;;14.70;13.32;;;24.10;99.50;;;;;;5052273;28;20481;-75
2023/08/18 11:40:46;;;;;;;13.05;11.85;;;24.10;99.50;;;;;;5052537;28;20114;-75
2023/08/18 11:43:12;;;;;;;12.27;11.18;;;24.10;99.70;;;;;;5052404;28;20019;-75
2023/08/18 11:45:39;;;;;;;12.13;11.00;;;24.20;99.70;;;;;;5051974;28;20036;-74
2023/08/18 11:48:06;;;;;;;10.68;9.68;;;24.20;99.80;;;;;;5052102;28;20029;-75
2023/08/18 11:50:35;;;;;;;13.73;12.60;;;24.20;99.70;;;;;;5057617;28;20033;-75
2023/08/18 11:53:11;;;;;;;14.80;13.60;;;24.30;99.60;;;;;;5060674;28;20045;-75
2023/08/18 11:55:40;;;;;;;14.15;12.85;;;24.30;99.60;;;;;;5065183;28;20461;-75
2023/08/18 11:58:10;;;;;;;10.77;9.88;;;24.30;99.50;;;;;;5060702;28;20032;-75
2023/08/18 12:00:37;;;;;;;15.85;14.48;;;24.30;99.80;;;;;;5067366;28;20070;-75
2023/08/18 12:03:05;;;;;;;12.23;11.05;;;24.30;99.60;;;;;;5063922;28;20090;-75
2023/08/18 12:05:31;;;;;;;11.45;10.50;;;24.50;99.50;;;;;;5060650;28;20414;-75
2023/08/18 12:07:59;;;;;;;11.52;10.52;;;24.50;99.60;;;;;;5064807;28;20135;-74
2023/08/18 12:10:24;;;;;;;11.52;10.20;;;24.50;99.80;;;;;;5066039;28;20020;-75
2023/08/18 12:12:54;;;;;;;14.73;13.45;;;24.60;99.90;;;;;;5065310;28;20028;-75
2023/08/18 12:15:23;;;;;;;14.93;13.50;;;24.70;99.70;;;;;;5061698;28;20024;-74
2023/08/18 12:17:48;;;;;;;16.85;15.45;;;24.70;99.50;;;;;;5069851;28;20021;-74
2023/08/18 12:20:15;;;;;;;15.05;13.75;;;24.70;99.30;;;;;;5066627;28;20086;-75
2023/08/18 12:22:40;;;;;;;17.88;16.35;;;24.70;99.30;;;;;;5061377;28;20055;-74
2023/08/18 12:25:06;;;;;;;14.60;13.38;;;24.70;99.30;;;;;;5052096;28;20478;-75
2023/08/18 12:27:34;;;;;;;16.23;14.57;;;24.80;99.30;;;;;;5075052;28;20028;-75
2023/08/18 12:30:00;;;;;;;15.38;14.18;;;24.80;99.30;;;;;;5062824;28;20470;-75